sensor_id;sensor_type;location;lat;lon;timestamp;P1;durP1;ratioP1;P2;durP2;ratioP2
11935;SDS011;6027;48.576;9.180;2023-08-07T00:00:42;10.43;;;9.80;;
11935;SDS011;6027;48.576;9.180;2023-08-07T00:03:07;9.32;;;8.68;;
11935;SDS011;6027;48.576;9.180;2023-08-07T00:05:33;9.90;;;9.20;;
11935;SDS011;6027;48.576;9.180;2023-08-07T00:07:58;11.68;;;11.00;;
11935;SDS011;6027;48.576;9.180;2023-08-07T00:10:24;10.48;;;9.88;;
11935;SDS011;6027;48.576;9.180;2023-08-07T00:12:49;11.20;;;10.45;;
11935;SDS011;6027;48.576;9.180;2023-08-07T00:15:15;9.43;;;8.90;;
11935;SDS011;6027;48.576;9.180;2023-08-07T00:17:41;10.13;;;9.52;;
11935;SDS011;6027;48.576;9.180;2023-08-07T00:20:07;9.55;;;8.95;;
11935;SDS011;6027;48.576;9.180;2023-08-07T00:25:00;10.65;;;9.88;;
11935;SDS011;6027;48.576;9.180;2023-08-07T00:27:26;10.48;;;9.77;;
11935;SDS011;6027;48.576;9.180;2023-08-07T00:29:51;9.00;;;8.45;;
11935;SDS011;6027;48.576;9.180;2023-08-07T00:32:17;10.55;;;9.77;;
11935;SDS011;6027;48.576;9.180;2023-08-07T00:34:43;8.50;;;8.02;;
11935;SDS011;6027;48.576;9.180;2023-08-07T00:37:09;10.50;;;9.80;;
11935;SDS011;6027;48.576;9.180;2023-08-07T00:39:34;9.18;;;8.68;;
11935;SDS011;6027;48.576;9.180;2023-08-07T00:41:59;10.48;;;9.85;;
11935;SDS011;6027;48.576;9.180;2023-08-07T00:44:25;8.40;;;7.80;;
11935;SDS011;6027;48.576;9.180;2023-08-07T00:46:51;9.02;;;8.48;;
11935;SDS011;6027;48.576;9.180;2023-08-07T00:49:16;10.60;;;9.95;;
11935;SDS011;6027;48.576;9.180;2023-08-07T00:51:44;10.85;;;10.25;;
11935;SDS011;6027;48.576;9.180;2023-08-07T00:54:10;11.10;;;10.32;;
11935;SDS011;6027;48.576;9.180;2023-08-07T00:56:36;11.35;;;10.55;;
11935;SDS011;6027;48.576;9.180;2023-08-07T00:59:02;10.23;;;9.57;;
11935;SDS011;6027;48.576;9.180;2023-08-07T01:01:28;12.05;;;11.20;;
11935;SDS011;6027;48.576;9.180;2023-08-07T01:03:54;9.50;;;8.70;;
11935;SDS011;6027;48.576;9.180;2023-08-07T01:06:19;8.00;;;7.50;;
11935;SDS011;6027;48.576;9.180;2023-08-07T01:08:45;10.60;;;9.65;;
11935;SDS011;6027;48.576;9.180;2023-08-07T01:16:34;10.13;;;9.52;;
11935;SDS011;6027;48.576;9.180;2023-08-07T01:19:02;11.40;;;10.70;;
11935;SDS011;6027;48.576;9.180;2023-08-07T01:21:29;10.35;;;9.68;;
11935;SDS011;6027;48.576;9.180;2023-08-07T01:23:57;11.48;;;10.68;;
11935;SDS011;6027;48.576;9.180;2023-08-07T01:26:23;12.30;;;11.55;;
11935;SDS011;6027;48.576;9.180;2023-08-07T01:28:50;13.27;;;12.52;;
11935;SDS011;6027;48.576;9.180;2023-08-07T01:31:26;11.50;;;10.77;;
11935;SDS011;6027;48.576;9.180;2023-08-07T01:33:59;12.02;;;11.23;;
11935;SDS011;6027;48.576;9.180;2023-08-07T01:36:29;12.60;;;11.68;;
11935;SDS011;6027;48.576;9.180;2023-08-07T01:38:56;12.65;;;11.75;;
11935;SDS011;6027;48.576;9.180;2023-08-07T01:41:24;11.27;;;10.30;;
11935;SDS011;6027;48.576;9.180;2023-08-07T01:43:51;8.77;;;8.18;;
11935;SDS011;6027;48.576;9.180;2023-08-07T01:46:17;10.35;;;9.73;;
11935;SDS011;6027;48.576;9.180;2023-08-07T01:48:43;12.82;;;11.93;;
11935;SDS011;6027;48.576;9.180;2023-08-07T01:51:09;9.02;;;8.32;;
11935;SDS011;6027;48.576;9.180;2023-08-07T01:53:34;10.52;;;9.85;;
11935;SDS011;6027;48.576;9.180;2023-08-07T01:56:00;11.48;;;10.73;;
11935;SDS011;6027;48.576;9.180;2023-08-07T01:58:25;12.10;;;11.38;;
11935;SDS011;6027;48.576;9.180;2023-08-07T02:00:51;10.90;;;10.23;;
11935;SDS011;6027;48.576;9.180;2023-08-07T02:03:16;11.75;;;11.07;;
11935;SDS011;6027;48.576;9.180;2023-08-07T02:05:44;8.90;;;8.32;;
11935;SDS011;6027;48.576;9.180;2023-08-07T02:08:10;12.70;;;11.88;;
11935;SDS011;6027;48.576;9.180;2023-08-07T02:10:36;12.30;;;11.57;;
11935;SDS011;6027;48.576;9.180;2023-08-07T02:13:01;11.43;;;10.68;;
11935;SDS011;6027;48.576;9.180;2023-08-07T02:15:26;14.27;;;13.30;;
11935;SDS011;6027;48.576;9.180;2023-08-07T02:17:52;13.73;;;12.70;;
11935;SDS011;6027;48.576;9.180;2023-08-07T02:20:17;11.75;;;11.02;;
11935;SDS011;6027;48.576;9.180;2023-08-07T02:22:43;10.98;;;10.32;;
11935;SDS011;6027;48.576;9.180;2023-08-07T02:25:08;13.18;;;12.38;;
11935;SDS011;6027;48.576;9.180;2023-08-07T02:27:34;12.10;;;11.30;;
11935;SDS011;6027;48.576;9.180;2023-08-07T02:30:00;12.38;;;11.60;;
11935;SDS011;6027;48.576;9.180;2023-08-07T02:32:27;12.27;;;11.57;;
11935;SDS011;6027;48.576;9.180;2023-08-07T02:34:53;14.15;;;13.23;;
11935;SDS011;6027;48.576;9.180;2023-08-07T02:37:18;14.32;;;13.35;;
11935;SDS011;6027;48.576;9.180;2023-08-07T02:39:45;14.95;;;13.98;;
11935;SDS011;6027;48.576;9.180;2023-08-07T02:42:11;13.40;;;12.52;;
11935;SDS011;6027;48.576;9.180;2023-08-07T02:44:37;11.45;;;10.68;;
11935;SDS011;6027;48.576;9.180;2023-08-07T02:47:02;13.07;;;12.27;;
11935;SDS011;6027;48.576;9.180;2023-08-07T02:49:28;13.55;;;12.63;;
11935;SDS011;6027;48.576;9.180;2023-08-07T02:51:53;10.98;;;10.27;;
11935;SDS011;6027;48.576;9.180;2023-08-07T02:54:19;12.93;;;12.13;;
11935;SDS011;6027;48.576;9.180;2023-08-07T02:56:44;13.65;;;12.55;;
11935;SDS011;6027;48.576;9.180;2023-08-07T02:59:09;12.77;;;11.70;;
11935;SDS011;6027;48.576;9.180;2023-08-07T03:01:35;10.10;;;9.38;;
11935;SDS011;6027;48.576;9.180;2023-08-07T03:04:00;9.90;;;9.18;;
11935;SDS011;6027;48.576;9.180;2023-08-07T03:06:25;10.32;;;9.32;;
11935;SDS011;6027;48.576;9.180;2023-08-07T03:08:51;9.50;;;8.90;;
11935;SDS011;6027;48.576;9.180;2023-08-07T03:11:17;11.73;;;10.98;;
11935;SDS011;6027;48.576;9.180;2023-08-07T03:13:42;9.73;;;9.13;;
11935;SDS011;6027;48.576;9.180;2023-08-07T03:16:09;11.00;;;10.20;;
11935;SDS011;6027;48.576;9.180;2023-08-07T03:18:35;9.63;;;8.95;;
11935;SDS011;6027;48.576;9.180;2023-08-07T03:21:00;8.73;;;8.15;;
11935;SDS011;6027;48.576;9.180;2023-08-07T03:23:26;11.05;;;10.35;;
11935;SDS011;6027;48.576;9.180;2023-08-07T03:28:47;9.27;;;8.48;;
11935;SDS011;6027;48.576;9.180;2023-08-07T03:31:13;11.38;;;10.50;;
11935;SDS011;6027;48.576;9.180;2023-08-07T03:33:39;11.68;;;11.02;;
11935;SDS011;6027;48.576;9.180;2023-08-07T03:36:04;8.27;;;7.57;;
11935;SDS011;6027;48.576;9.180;2023-08-07T03:38:30;7.53;;;6.93;;
11935;SDS011;6027;48.576;9.180;2023-08-07T03:40:55;9.00;;;8.32;;
11935;SDS011;6027;48.576;9.180;2023-08-07T03:43:21;10.73;;;9.93;;
11935;SDS011;6027;48.576;9.180;2023-08-07T03:45:46;10.32;;;9.40;;
11935;SDS011;6027;48.576;9.180;2023-08-07T03:48:12;10.32;;;9.45;;
11935;SDS011;6027;48.576;9.180;2023-08-07T03:50:37;9.27;;;8.65;;
11935;SDS011;6027;48.576;9.180;2023-08-07T03:53:06;9.18;;;7.90;;
11935;SDS011;6027;48.576;9.180;2023-08-07T03:55:32;9.55;;;8.85;;
11935;SDS011;6027;48.576;9.180;2023-08-07T03:57:57;10.40;;;9.50;;
11935;SDS011;6027;48.576;9.180;2023-08-07T04:00:23;10.73;;;10.00;;
11935;SDS011;6027;48.576;9.180;2023-08-07T04:02:48;10.20;;;9.50;;
11935;SDS011;6027;48.576;9.180;2023-08-07T04:05:14;8.88;;;8.30;;
11935;SDS011;6027;48.576;9.180;2023-08-07T04:07:39;8.02;;;7.43;;
11935;SDS011;6027;48.576;9.180;2023-08-07T04:10:05;8.93;;;8.13;;
11935;SDS011;6027;48.576;9.180;2023-08-07T04:12:30;9.00;;;8.35;;
11935;SDS011;6027;48.576;9.180;2023-08-07T04:14:56;7.70;;;7.00;;
11935;SDS011;6027;48.576;9.180;2023-08-07T04:17:21;8.38;;;6.50;;
11935;SDS011;6027;48.576;9.180;2023-08-07T04:19:47;9.07;;;8.43;;
11935;SDS011;6027;48.576;9.180;2023-08-07T04:22:12;7.53;;;6.93;;
11935;SDS011;6027;48.576;9.180;2023-08-07T04:24:38;10.05;;;9.43;;
11935;SDS011;6027;48.576;9.180;2023-08-07T04:27:03;8.88;;;8.23;;
11935;SDS011;6027;48.576;9.180;2023-08-07T04:29:29;8.00;;;7.40;;
11935;SDS011;6027;48.576;9.180;2023-08-07T04:31:54;8.55;;;7.95;;
11935;SDS011;6027;48.576;9.180;2023-08-07T04:34:20;7.90;;;7.40;;
11935;SDS011;6027;48.576;9.180;2023-08-07T04:36:45;8.70;;;8.18;;
11935;SDS011;6027;48.576;9.180;2023-08-07T04:39:11;9.27;;;8.60;;
11935;SDS011;6027;48.576;9.180;2023-08-07T04:41:38;8.65;;;8.05;;
11935;SDS011;6027;48.576;9.180;2023-08-07T04:44:04;9.35;;;8.75;;
11935;SDS011;6027;48.576;9.180;2023-08-07T04:46:29;10.23;;;9.38;;
11935;SDS011;6027;48.576;9.180;2023-08-07T04:48:55;10.80;;;10.02;;
11935;SDS011;6027;48.576;9.180;2023-08-07T04:51:20;12.63;;;11.77;;
11935;SDS011;6027;48.576;9.180;2023-08-07T04:53:46;9.93;;;9.20;;
11935;SDS011;6027;48.576;9.180;2023-08-07T04:56:11;12.73;;;11.85;;
11935;SDS011;6027;48.576;9.180;2023-08-07T04:58:36;10.73;;;10.10;;
11935;SDS011;6027;48.576;9.180;2023-08-07T05:01:02;12.20;;;11.38;;
11935;SDS011;6027;48.576;9.180;2023-08-07T05:03:28;10.48;;;9.57;;
11935;SDS011;6027;48.576;9.180;2023-08-07T05:05:57;10.80;;;10.05;;
11935;SDS011;6027;48.576;9.180;2023-08-07T05:08:23;9.68;;;9.07;;
11935;SDS011;6027;48.576;9.180;2023-08-07T05:10:49;8.85;;;8.25;;
11935;SDS011;6027;48.576;9.180;2023-08-07T05:13:14;7.72;;;7.25;;
11935;SDS011;6027;48.576;9.180;2023-08-07T05:15:40;9.52;;;8.82;;
11935;SDS011;6027;48.576;9.180;2023-08-07T05:18:05;12.32;;;11.40;;
11935;SDS011;6027;48.576;9.180;2023-08-07T05:20:32;12.85;;;11.95;;
11935;SDS011;6027;48.576;9.180;2023-08-07T05:22:57;11.93;;;11.10;;
11935;SDS011;6027;48.576;9.180;2023-08-07T05:25:22;13.55;;;12.55;;
11935;SDS011;6027;48.576;9.180;2023-08-07T05:27:48;9.38;;;8.88;;
11935;SDS011;6027;48.576;9.180;2023-08-07T05:30:13;14.70;;;13.55;;
11935;SDS011;6027;48.576;9.180;2023-08-07T05:32:39;11.52;;;10.73;;
11935;SDS011;6027;48.576;9.180;2023-08-07T05:35:06;11.48;;;10.68;;
11935;SDS011;6027;48.576;9.180;2023-08-07T05:37:33;10.73;;;9.90;;
11935;SDS011;6027;48.576;9.180;2023-08-07T05:39:59;11.23;;;10.48;;
11935;SDS011;6027;48.576;9.180;2023-08-07T05:42:24;12.93;;;12.15;;
11935;SDS011;6027;48.576;9.180;2023-08-07T05:44:50;14.25;;;13.07;;
11935;SDS011;6027;48.576;9.180;2023-08-07T05:47:15;12.68;;;11.73;;
11935;SDS011;6027;48.576;9.180;2023-08-07T05:49:41;11.27;;;10.45;;
11935;SDS011;6027;48.576;9.180;2023-08-07T05:52:07;14.63;;;13.75;;
11935;SDS011;6027;48.576;9.180;2023-08-07T05:54:33;12.60;;;11.80;;
11935;SDS011;6027;48.576;9.180;2023-08-07T05:56:58;13.13;;;12.32;;
11935;SDS011;6027;48.576;9.180;2023-08-07T05:59:24;12.40;;;11.60;;
11935;SDS011;6027;48.576;9.180;2023-08-07T06:01:49;9.75;;;8.93;;
11935;SDS011;6027;48.576;9.180;2023-08-07T06:04:14;10.32;;;9.63;;
11935;SDS011;6027;48.576;9.180;2023-08-07T06:06:40;10.20;;;9.50;;
11935;SDS011;6027;48.576;9.180;2023-08-07T06:09:07;9.48;;;8.95;;
11935;SDS011;6027;48.576;9.180;2023-08-07T06:11:33;9.95;;;9.10;;
11935;SDS011;6027;48.576;9.180;2023-08-07T06:13:58;9.30;;;8.60;;
11935;SDS011;6027;48.576;9.180;2023-08-07T06:16:24;9.65;;;9.07;;
11935;SDS011;6027;48.576;9.180;2023-08-07T06:18:49;8.80;;;8.18;;
11935;SDS011;6027;48.576;9.180;2023-08-07T06:21:15;8.38;;;7.88;;
11935;SDS011;6027;48.576;9.180;2023-08-07T06:23:41;8.00;;;7.40;;
11935;SDS011;6027;48.576;9.180;2023-08-07T06:26:07;7.68;;;6.97;;
11935;SDS011;6027;48.576;9.180;2023-08-07T06:28:33;8.52;;;7.72;;
11935;SDS011;6027;48.576;9.180;2023-08-07T06:31:11;7.40;;;6.93;;
11935;SDS011;6027;48.576;9.180;2023-08-07T06:33:37;10.30;;;9.43;;
11935;SDS011;6027;48.576;9.180;2023-08-07T06:36:03;8.80;;;8.15;;
11935;SDS011;6027;48.576;9.180;2023-08-07T06:38:29;8.48;;;7.72;;
11935;SDS011;6027;48.576;9.180;2023-08-07T06:40:55;7.35;;;6.85;;
11935;SDS011;6027;48.576;9.180;2023-08-07T06:43:21;9.43;;;8.82;;
11935;SDS011;6027;48.576;9.180;2023-08-07T06:45:48;8.25;;;7.65;;
11935;SDS011;6027;48.576;9.180;2023-08-07T06:48:20;7.68;;;7.07;;
11935;SDS011;6027;48.576;9.180;2023-08-07T06:50:46;8.40;;;7.80;;
11935;SDS011;6027;48.576;9.180;2023-08-07T06:53:12;7.57;;;6.97;;
11935;SDS011;6027;48.576;9.180;2023-08-07T06:55:38;7.63;;;7.13;;
11935;SDS011;6027;48.576;9.180;2023-08-07T06:58:03;7.93;;;7.43;;
11935;SDS011;6027;48.576;9.180;2023-08-07T07:00:30;6.88;;;6.50;;
11935;SDS011;6027;48.576;9.180;2023-08-07T07:02:56;7.97;;;7.47;;
11935;SDS011;6027;48.576;9.180;2023-08-07T07:05:22;6.72;;;6.32;;
11935;SDS011;6027;48.576;9.180;2023-08-07T07:07:47;7.50;;;6.97;;
11935;SDS011;6027;48.576;9.180;2023-08-07T07:10:12;7.10;;;6.63;;
11935;SDS011;6027;48.576;9.180;2023-08-07T07:12:38;7.63;;;6.93;;
11935;SDS011;6027;48.576;9.180;2023-08-07T07:15:03;8.18;;;7.38;;
11935;SDS011;6027;48.576;9.180;2023-08-07T07:17:29;6.72;;;6.22;;
11935;SDS011;6027;48.576;9.180;2023-08-07T07:19:54;6.65;;;6.15;;
11935;SDS011;6027;48.576;9.180;2023-08-07T07:22:22;6.57;;;6.05;;
11935;SDS011;6027;48.576;9.180;2023-08-07T07:24:47;7.82;;;6.50;;
11935;SDS011;6027;48.576;9.180;2023-08-07T07:27:13;7.63;;;7.03;;
11935;SDS011;6027;48.576;9.180;2023-08-07T07:29:39;7.72;;;7.10;;
11935;SDS011;6027;48.576;9.180;2023-08-07T07:32:04;7.22;;;6.63;;
11935;SDS011;6027;48.576;9.180;2023-08-07T07:34:30;7.07;;;6.57;;
11935;SDS011;6027;48.576;9.180;2023-08-07T07:39:23;8.20;;;7.53;;
11935;SDS011;6027;48.576;9.180;2023-08-07T07:41:49;8.10;;;7.35;;
11935;SDS011;6027;48.576;9.180;2023-08-07T07:44:14;7.03;;;6.63;;
11935;SDS011;6027;48.576;9.180;2023-08-07T07:46:40;7.68;;;7.18;;
11935;SDS011;6027;48.576;9.180;2023-08-07T07:49:05;8.07;;;7.47;;
11935;SDS011;6027;48.576;9.180;2023-08-07T07:51:31;7.40;;;6.90;;
11935;SDS011;6027;48.576;9.180;2023-08-07T07:53:57;8.70;;;8.10;;
11935;SDS011;6027;48.576;9.180;2023-08-07T07:56:23;8.35;;;7.82;;
11935;SDS011;6027;48.576;9.180;2023-08-07T07:58:48;7.47;;;6.88;;
11935;SDS011;6027;48.576;9.180;2023-08-07T08:01:13;8.70;;;8.20;;
11935;SDS011;6027;48.576;9.180;2023-08-07T08:03:39;7.25;;;6.78;;
11935;SDS011;6027;48.576;9.180;2023-08-07T08:06:04;6.78;;;6.38;;
11935;SDS011;6027;48.576;9.180;2023-08-07T08:08:30;6.90;;;6.40;;
11935;SDS011;6027;48.576;9.180;2023-08-07T08:10:55;6.78;;;6.38;;
11935;SDS011;6027;48.576;9.180;2023-08-07T08:13:21;7.70;;;7.20;;
11935;SDS011;6027;48.576;9.180;2023-08-07T08:15:47;8.18;;;7.68;;
11935;SDS011;6027;48.576;9.180;2023-08-07T08:18:13;8.48;;;7.93;;
11935;SDS011;6027;48.576;9.180;2023-08-07T08:20:38;7.68;;;7.18;;
11935;SDS011;6027;48.576;9.180;2023-08-07T08:23:04;8.23;;;7.72;;
11935;SDS011;6027;48.576;9.180;2023-08-07T08:25:30;8.60;;;8.10;;
11935;SDS011;6027;48.576;9.180;2023-08-07T08:27:57;8.98;;;8.30;;
11935;SDS011;6027;48.576;9.180;2023-08-07T08:30:23;9.52;;;8.95;;
11935;SDS011;6027;48.576;9.180;2023-08-07T08:32:48;7.65;;;6.93;;
11935;SDS011;6027;48.576;9.180;2023-08-07T08:35:14;8.43;;;7.93;;
11935;SDS011;6027;48.576;9.180;2023-08-07T08:37:39;6.60;;;6.15;;
11935;SDS011;6027;48.576;9.180;2023-08-07T08:40:05;7.13;;;6.72;;
11935;SDS011;6027;48.576;9.180;2023-08-07T08:42:33;6.28;;;5.85;;
11935;SDS011;6027;48.576;9.180;2023-08-07T08:44:59;7.38;;;6.88;;
11935;SDS011;6027;48.576;9.180;2023-08-07T08:47:26;7.97;;;7.57;;
11935;SDS011;6027;48.576;9.180;2023-08-07T08:50:00;7.10;;;6.68;;
11935;SDS011;6027;48.576;9.180;2023-08-07T08:52:28;7.70;;;7.20;;
11935;SDS011;6027;48.576;9.180;2023-08-07T08:54:56;7.30;;;6.78;;
11935;SDS011;6027;48.576;9.180;2023-08-07T08:57:23;7.53;;;7.07;;
11935;SDS011;6027;48.576;9.180;2023-08-07T08:59:51;9.00;;;6.05;;
11935;SDS011;6027;48.576;9.180;2023-08-07T09:02:16;7.93;;;7.43;;
11935;SDS011;6027;48.576;9.180;2023-08-07T09:04:42;6.95;;;6.55;;
11935;SDS011;6027;48.576;9.180;2023-08-07T09:07:08;5.28;;;4.88;;
11935;SDS011;6027;48.576;9.180;2023-08-07T09:09:34;6.20;;;5.72;;
11935;SDS011;6027;48.576;9.180;2023-08-07T09:12:00;6.78;;;6.38;;
11935;SDS011;6027;48.576;9.180;2023-08-07T09:14:28;8.30;;;7.63;;
11935;SDS011;6027;48.576;9.180;2023-08-07T09:16:57;7.03;;;6.63;;
11935;SDS011;6027;48.576;9.180;2023-08-07T09:19:26;6.30;;;5.90;;
11935;SDS011;6027;48.576;9.180;2023-08-07T09:21:52;7.20;;;6.70;;
11935;SDS011;6027;48.576;9.180;2023-08-07T09:24:18;7.10;;;6.70;;
11935;SDS011;6027;48.576;9.180;2023-08-07T09:26:44;6.00;;;5.50;;
11935;SDS011;6027;48.576;9.180;2023-08-07T09:29:10;6.05;;;5.55;;
11935;SDS011;6027;48.576;9.180;2023-08-07T09:31:36;8.45;;;7.85;;
11935;SDS011;6027;48.576;9.180;2023-08-07T09:34:02;7.40;;;6.90;;
11935;SDS011;6027;48.576;9.180;2023-08-07T09:36:31;7.03;;;6.63;;
11935;SDS011;6027;48.576;9.180;2023-08-07T09:39:01;6.72;;;6.30;;
11935;SDS011;6027;48.576;9.180;2023-08-07T09:41:28;7.55;;;7.07;;
11935;SDS011;6027;48.576;9.180;2023-08-07T09:43:54;5.65;;;5.35;;
11935;SDS011;6027;48.576;9.180;2023-08-07T09:46:20;6.13;;;5.80;;
11935;SDS011;6027;48.576;9.180;2023-08-07T09:48:45;6.72;;;6.15;;
11935;SDS011;6027;48.576;9.180;2023-08-07T09:51:10;6.18;;;5.88;;
11935;SDS011;6027;48.576;9.180;2023-08-07T09:53:36;6.38;;;6.07;;
11935;SDS011;6027;48.576;9.180;2023-08-07T09:56:02;5.43;;;5.13;;
11935;SDS011;6027;48.576;9.180;2023-08-07T09:58:28;5.50;;;5.20;;
11935;SDS011;6027;48.576;9.180;2023-08-07T10:00:54;6.90;;;6.50;;
11935;SDS011;6027;48.576;9.180;2023-08-07T10:03:24;6.22;;;5.82;;
11935;SDS011;6027;48.576;9.180;2023-08-07T10:05:51;5.82;;;5.50;;
11935;SDS011;6027;48.576;9.180;2023-08-07T10:08:16;7.53;;;7.13;;
11935;SDS011;6027;48.576;9.180;2023-08-07T10:10:42;6.15;;;5.72;;
11935;SDS011;6027;48.576;9.180;2023-08-07T10:13:08;5.88;;;5.47;;
11935;SDS011;6027;48.576;9.180;2023-08-07T10:15:36;6.75;;;6.05;;
11935;SDS011;6027;48.576;9.180;2023-08-07T10:18:03;6.20;;;5.70;;
11935;SDS011;6027;48.576;9.180;2023-08-07T10:20:30;5.55;;;5.25;;
11935;SDS011;6027;48.576;9.180;2023-08-07T10:23:06;7.22;;;6.63;;
11935;SDS011;6027;48.576;9.180;2023-08-07T10:25:33;6.22;;;5.82;;
11935;SDS011;6027;48.576;9.180;2023-08-07T10:27:59;5.32;;;5.03;;
11935;SDS011;6027;48.576;9.180;2023-08-07T10:30:27;5.72;;;5.43;;
11935;SDS011;6027;48.576;9.180;2023-08-07T10:32:53;7.18;;;6.70;;
11935;SDS011;6027;48.576;9.180;2023-08-07T10:35:25;6.97;;;6.60;;
11935;SDS011;6027;48.576;9.180;2023-08-07T10:37:51;5.63;;;5.32;;
11935;SDS011;6027;48.576;9.180;2023-08-07T10:40:18;6.50;;;6.20;;
11935;SDS011;6027;48.576;9.180;2023-08-07T10:45:22;5.63;;;5.32;;
11935;SDS011;6027;48.576;9.180;2023-08-07T10:48:10;6.38;;;5.97;;
11935;SDS011;6027;48.576;9.180;2023-08-07T10:53:28;8.02;;;7.53;;
11935;SDS011;6027;48.576;9.180;2023-08-07T10:56:04;5.78;;;5.47;;
11935;SDS011;6027;48.576;9.180;2023-08-07T10:58:34;6.32;;;5.93;;
11935;SDS011;6027;48.576;9.180;2023-08-07T11:03:55;6.60;;;6.20;;
11935;SDS011;6027;48.576;9.180;2023-08-07T11:06:40;5.60;;;5.20;;
11935;SDS011;6027;48.576;9.180;2023-08-07T11:09:08;6.43;;;5.93;;
11935;SDS011;6027;48.576;9.180;2023-08-07T11:14:02;6.78;;;6.22;;
11935;SDS011;6027;48.576;9.180;2023-08-07T11:16:27;5.80;;;5.50;;
11935;SDS011;6027;48.576;9.180;2023-08-07T11:18:54;6.18;;;5.88;;
11935;SDS011;6027;48.576;9.180;2023-08-07T11:21:19;7.07;;;6.57;;
11935;SDS011;6027;48.576;9.180;2023-08-07T11:23:45;6.97;;;6.57;;
11935;SDS011;6027;48.576;9.180;2023-08-07T11:26:11;5.93;;;5.53;;
11935;SDS011;6027;48.576;9.180;2023-08-07T11:28:37;6.97;;;6.47;;
11935;SDS011;6027;48.576;9.180;2023-08-07T11:31:02;5.50;;;5.20;;
11935;SDS011;6027;48.576;9.180;2023-08-07T11:33:28;6.18;;;5.68;;
11935;SDS011;6027;48.576;9.180;2023-08-07T11:35:54;7.28;;;6.88;;
11935;SDS011;6027;48.576;9.180;2023-08-07T11:38:30;5.45;;;5.05;;
11935;SDS011;6027;48.576;9.180;2023-08-07T11:40:58;6.82;;;6.32;;
11935;SDS011;6027;48.576;9.180;2023-08-07T11:43:26;5.22;;;4.82;;
11935;SDS011;6027;48.576;9.180;2023-08-07T11:45:52;6.80;;;6.40;;
11935;SDS011;6027;48.576;9.180;2023-08-07T11:48:17;6.22;;;5.85;;
11935;SDS011;6027;48.576;9.180;2023-08-07T11:50:43;6.20;;;5.80;;
11935;SDS011;6027;48.576;9.180;2023-08-07T11:53:08;6.63;;;6.10;;
11935;SDS011;6027;48.576;9.180;2023-08-07T11:55:34;6.15;;;5.80;;
11935;SDS011;6027;48.576;9.180;2023-08-07T11:58:00;7.60;;;7.05;;
11935;SDS011;6027;48.576;9.180;2023-08-07T12:00:28;5.85;;;5.55;;
11935;SDS011;6027;48.576;9.180;2023-08-07T12:02:54;7.20;;;6.60;;
11935;SDS011;6027;48.576;9.180;2023-08-07T12:05:19;7.80;;;7.25;;
11935;SDS011;6027;48.576;9.180;2023-08-07T12:07:46;7.13;;;6.72;;
11935;SDS011;6027;48.576;9.180;2023-08-07T12:10:12;6.90;;;6.30;;
11935;SDS011;6027;48.576;9.180;2023-08-07T12:12:38;6.28;;;5.88;;
11935;SDS011;6027;48.576;9.180;2023-08-07T12:15:07;6.65;;;6.28;;
11935;SDS011;6027;48.576;9.180;2023-08-07T12:17:34;5.90;;;5.43;;
11935;SDS011;6027;48.576;9.180;2023-08-07T12:20:02;7.03;;;6.55;;
11935;SDS011;6027;48.576;9.180;2023-08-07T12:22:29;6.75;;;6.35;;
11935;SDS011;6027;48.576;9.180;2023-08-07T12:24:55;6.95;;;6.55;;
11935;SDS011;6027;48.576;9.180;2023-08-07T12:27:20;6.13;;;5.82;;
11935;SDS011;6027;48.576;9.180;2023-08-07T12:29:46;6.50;;;6.20;;
11935;SDS011;6027;48.576;9.180;2023-08-07T12:32:11;6.68;;;6.28;;
11935;SDS011;6027;48.576;9.180;2023-08-07T12:34:37;7.22;;;6.82;;
11935;SDS011;6027;48.576;9.180;2023-08-07T12:37:06;6.70;;;6.20;;
11935;SDS011;6027;48.576;9.180;2023-08-07T12:39:31;6.45;;;6.00;;
11935;SDS011;6027;48.576;9.180;2023-08-07T12:41:56;6.15;;;5.75;;
11935;SDS011;6027;48.576;9.180;2023-08-07T12:44:23;7.53;;;7.05;;
11935;SDS011;6027;48.576;9.180;2023-08-07T12:46:48;6.90;;;6.43;;
11935;SDS011;6027;48.576;9.180;2023-08-07T12:49:14;7.53;;;6.97;;
11935;SDS011;6027;48.576;9.180;2023-08-07T12:51:40;7.53;;;7.03;;
11935;SDS011;6027;48.576;9.180;2023-08-07T12:54:06;6.30;;;5.93;;
11935;SDS011;6027;48.576;9.180;2023-08-07T12:56:31;7.82;;;7.32;;
11935;SDS011;6027;48.576;9.180;2023-08-07T12:58:56;6.45;;;6.05;;
11935;SDS011;6027;48.576;9.180;2023-08-07T13:01:22;7.30;;;6.90;;
11935;SDS011;6027;48.576;9.180;2023-08-07T13:03:47;7.30;;;6.85;;
11935;SDS011;6027;48.576;9.180;2023-08-07T13:06:12;8.43;;;7.82;;
11935;SDS011;6027;48.576;9.180;2023-08-07T13:08:38;7.25;;;6.85;;
11935;SDS011;6027;48.576;9.180;2023-08-07T13:11:04;7.20;;;6.80;;
11935;SDS011;6027;48.576;9.180;2023-08-07T13:13:30;7.28;;;6.82;;
11935;SDS011;6027;48.576;9.180;2023-08-07T13:15:56;6.60;;;6.20;;
11935;SDS011;6027;48.576;9.180;2023-08-07T13:18:22;6.90;;;6.40;;
11935;SDS011;6027;48.576;9.180;2023-08-07T13:20:47;7.57;;;7.07;;
11935;SDS011;6027;48.576;9.180;2023-08-07T13:23:13;8.43;;;7.93;;
11935;SDS011;6027;48.576;9.180;2023-08-07T13:25:39;8.02;;;7.53;;
11935;SDS011;6027;48.576;9.180;2023-08-07T13:28:05;7.28;;;6.88;;
11935;SDS011;6027;48.576;9.180;2023-08-07T13:30:35;8.15;;;7.57;;
11935;SDS011;6027;48.576;9.180;2023-08-07T13:33:00;6.88;;;6.38;;
11935;SDS011;6027;48.576;9.180;2023-08-07T13:35:26;7.65;;;7.15;;
11935;SDS011;6027;48.576;9.180;2023-08-07T13:37:51;6.35;;;5.95;;
11935;SDS011;6027;48.576;9.180;2023-08-07T13:40:17;7.30;;;6.90;;
11935;SDS011;6027;48.576;9.180;2023-08-07T13:42:43;6.72;;;6.20;;
11935;SDS011;6027;48.576;9.180;2023-08-07T13:45:09;7.32;;;6.82;;
11935;SDS011;6027;48.576;9.180;2023-08-07T13:47:35;5.18;;;4.88;;
11935;SDS011;6027;48.576;9.180;2023-08-07T13:50:03;4.65;;;4.35;;
11935;SDS011;6027;48.576;9.180;2023-08-07T13:52:28;6.07;;;5.68;;
11935;SDS011;6027;48.576;9.180;2023-08-07T13:54:54;6.95;;;6.45;;
11935;SDS011;6027;48.576;9.180;2023-08-07T13:57:19;7.07;;;6.47;;
11935;SDS011;6027;48.576;9.180;2023-08-07T13:59:44;6.63;;;5.95;;
11935;SDS011;6027;48.576;9.180;2023-08-07T14:02:10;9.05;;;8.55;;
11935;SDS011;6027;48.576;9.180;2023-08-07T14:04:35;7.20;;;6.70;;
11935;SDS011;6027;48.576;9.180;2023-08-07T14:07:01;8.02;;;7.53;;
11935;SDS011;6027;48.576;9.180;2023-08-07T14:09:27;7.10;;;6.70;;
11935;SDS011;6027;48.576;9.180;2023-08-07T14:11:53;6.07;;;5.68;;
11935;SDS011;6027;48.576;9.180;2023-08-07T14:14:18;6.18;;;5.88;;
11935;SDS011;6027;48.576;9.180;2023-08-07T14:16:44;6.30;;;5.95;;
11935;SDS011;6027;48.576;9.180;2023-08-07T14:19:09;6.68;;;6.28;;
11935;SDS011;6027;48.576;9.180;2023-08-07T14:21:35;5.95;;;5.47;;
11935;SDS011;6027;48.576;9.180;2023-08-07T14:24:00;4.72;;;4.32;;
11935;SDS011;6027;48.576;9.180;2023-08-07T14:26:26;5.32;;;5.03;;
11935;SDS011;6027;48.576;9.180;2023-08-07T14:28:51;6.53;;;6.13;;
11935;SDS011;6027;48.576;9.180;2023-08-07T14:31:17;5.85;;;5.55;;
11935;SDS011;6027;48.576;9.180;2023-08-07T14:33:42;5.70;;;5.38;;
11935;SDS011;6027;48.576;9.180;2023-08-07T14:36:08;6.30;;;5.95;;
11935;SDS011;6027;48.576;9.180;2023-08-07T14:38:33;5.78;;;5.28;;
11935;SDS011;6027;48.576;9.180;2023-08-07T14:40:59;5.85;;;5.45;;
11935;SDS011;6027;48.576;9.180;2023-08-07T14:43:25;5.68;;;5.38;;
11935;SDS011;6027;48.576;9.180;2023-08-07T14:45:53;5.47;;;5.18;;
11935;SDS011;6027;48.576;9.180;2023-08-07T14:50:47;5.38;;;5.07;;
11935;SDS011;6027;48.576;9.180;2023-08-07T14:53:13;6.25;;;5.95;;
11935;SDS011;6027;48.576;9.180;2023-08-07T14:55:38;6.53;;;6.18;;
11935;SDS011;6027;48.576;9.180;2023-08-07T14:58:03;5.97;;;5.57;;
11935;SDS011;6027;48.576;9.180;2023-08-07T15:00:29;5.30;;;4.78;;
11935;SDS011;6027;48.576;9.180;2023-08-07T15:02:56;6.50;;;6.10;;
11935;SDS011;6027;48.576;9.180;2023-08-07T15:05:22;5.90;;;5.57;;
11935;SDS011;6027;48.576;9.180;2023-08-07T15:07:48;5.15;;;4.75;;
11935;SDS011;6027;48.576;9.180;2023-08-07T15:10:13;5.70;;;5.30;;
11935;SDS011;6027;48.576;9.180;2023-08-07T15:12:40;5.38;;;5.07;;
11935;SDS011;6027;48.576;9.180;2023-08-07T15:15:05;6.28;;;5.88;;